sensor_id;sensor_type;location;lat;lon;timestamp;pressure;altitude;pressure_sealevel;temperature;humidity
70968;BME280;58629;48.808;8.820;2023-02-23T00:01:31;96782.69;;;6.09;100.00
70968;BME280;58629;48.808;8.820;2023-02-23T00:03:57;96784.94;;;6.11;100.00
70968;BME280;58629;48.808;8.820;2023-02-23T00:06:24;96778.53;;;6.08;100.00
70968;BME280;58629;48.808;8.820;2023-02-23T00:08:50;96779.69;;;6.07;100.00
70968;BME280;58629;48.808;8.820;2023-02-23T00:11:17;96784.22;;;6.03;100.00
70968;BME280;58629;48.808;8.820;2023-02-23T00:13:44;96777.44;;;6.02;100.00
70968;BME280;58629;48.808;8.820;2023-02-23T00:16:19;96778.19;;;6.06;100.00
70968;BME280;58629;48.808;8.820;2023-02-23T00:18:56;96772.19;;;6.06;100.00
70968;BME280;58629;48.808;8.820;2023-02-23T00:21:29;96772.94;;;6.03;100.00
70968;BME280;58629;48.808;8.820;2023-02-23T00:23:58;96777.84;;;6.01;100.00
70968;BME280;58629;48.808;8.820;2023-02-23T00:26:26;96771.84;;;6.00;100.00
70968;BME280;58629;48.808;8.820;2023-02-23T00:28:54;96772.94;;;6.03;100.00
70968;BME280;58629;48.808;8.820;2023-02-23T00:31:20;96774.47;;;6.04;100.00
70968;BME280;58629;48.808;8.820;2023-02-23T00:34:01;96769.56;;;6.06;100.00
70968;BME280;58629;48.808;8.820;2023-02-23T00:36:30;96774.06;;;6.05;100.00
70968;BME280;58629;48.808;8.820;2023-02-23T00:38:59;96769.94;;;6.08;100.00
70968;BME280;58629;48.808;8.820;2023-02-23T00:41:25;96775.56;;;6.06;100.00
70968;BME280;58629;48.808;8.820;2023-02-23T00:43:54;96776.28;;;6.10;100.00
70968;BME280;58629;48.808;8.820;2023-02-23T00:46:23;96771.00;;;6.14;100.00
70968;BME280;58629;48.808;8.820;2023-02-23T00:48:51;96768.72;;;6.16;100.00
70968;BME280;58629;48.808;8.820;2023-02-23T00:51:17;96767.63;;;6.17;100.00
70968;BME280;58629;48.808;8.820;2023-02-23T00:53:43;96768.38;;;6.18;100.00
70968;BME280;58629;48.808;8.820;2023-02-23T00:56:11;96772.47;;;6.19;100.00
70968;BME280;58629;48.808;8.820;2023-02-23T00:58:37;96769.84;;;6.19;100.00
70968;BME280;58629;48.808;8.820;2023-02-23T01:01:10;96763.47;;;6.16;100.00
70968;BME280;58629;48.808;8.820;2023-02-23T01:03:37;96758.22;;;6.20;100.00
70968;BME280;58629;48.808;8.820;2023-02-23T01:06:05;96767.59;;;6.21;100.00
70968;BME280;58629;48.808;8.820;2023-02-23T01:08:32;96761.56;;;6.24;100.00
70968;BME280;58629;48.808;8.820;2023-02-23T01:10:58;96762.69;;;6.23;100.00
70968;BME280;58629;48.808;8.820;2023-02-23T01:13:24;96761.56;;;6.24;100.00
70968;BME280;58629;48.808;8.820;2023-02-23T01:15:52;96763.84;;;6.22;100.00
70968;BME280;58629;48.808;8.820;2023-02-23T01:18:19;96769.47;;;6.24;100.00
70968;BME280;58629;48.808;8.820;2023-02-23T01:20:45;96767.97;;;6.19;100.00
70968;BME280;58629;48.808;8.820;2023-02-23T01:23:12;96768.41;;;6.10;100.00
70968;BME280;58629;48.808;8.820;2023-02-23T01:25:43;96764.69;;;6.08;100.00
70968;BME280;58629;48.808;8.820;2023-02-23T01:28:12;96771.03;;;6.10;100.00
70968;BME280;58629;48.808;8.820;2023-02-23T01:30:38;96760.88;;;6.12;100.00
70968;BME280;58629;48.808;8.820;2023-02-23T01:33:04;96759.00;;;6.13;100.00
70968;BME280;58629;48.808;8.820;2023-02-23T01:35:30;96753.78;;;6.09;100.00
70968;BME280;58629;48.808;8.820;2023-02-23T01:37:55;96757.16;;;6.10;100.00
70968;BME280;58629;48.808;8.820;2023-02-23T01:40:22;96756.03;;;6.07;100.00
70968;BME280;58629;48.808;8.820;2023-02-23T01:42:59;96755.34;;;6.00;100.00
70968;BME280;58629;48.808;8.820;2023-02-23T01:45:32;96751.63;;;5.94;100.00
70968;BME280;58629;48.808;8.820;2023-02-23T01:48:07;96753.84;;;5.95;100.00
70968;BME280;58629;48.808;8.820;2023-02-23T01:50:55;96754.59;;;5.99;100.00
70968;BME280;58629;48.808;8.820;2023-02-23T01:53:22;96754.59;;;5.99;100.00
70968;BME280;58629;48.808;8.820;2023-02-23T01:55:55;96749.31;;;5.99;100.00
70968;BME280;58629;48.808;8.820;2023-02-23T01:58:23;96743.31;;;5.99;100.00
70968;BME280;58629;48.808;8.820;2023-02-23T02:00:54;96746.31;;;6.01;100.00
70968;BME280;58629;48.808;8.820;2023-02-23T02:03:30;96742.91;;;6.04;100.00
70968;BME280;58629;48.808;8.820;2023-02-23T02:05:59;96746.63;;;6.06;100.00
70968;BME280;58629;48.808;8.820;2023-02-23T02:08:27;96749.28;;;6.06;100.00
70968;BME280;58629;48.808;8.820;2023-02-23T02:10:53;96746.28;;;6.04;100.00
70968;BME280;58629;48.808;8.820;2023-02-23T02:13:25;96748.53;;;6.06;100.00
70968;BME280;58629;48.808;8.820;2023-02-23T02:16:04;96739.91;;;6.05;100.00
70968;BME280;58629;48.808;8.820;2023-02-23T02:18:46;96742.91;;;6.04;100.00
70968;BME280;58629;48.808;8.820;2023-02-23T02:27:17;96738.75;;;6.10;100.00
70968;BME280;58629;48.808;8.820;2023-02-23T02:30:15;96741.38;;;6.10;100.00
70968;BME280;58629;48.808;8.820;2023-02-23T02:39:09;96727.81;;;6.15;100.00
70968;BME280;58629;48.808;8.820;2023-02-23T02:41:54;96728.19;;;6.17;100.00
70968;BME280;58629;48.808;8.820;2023-02-23T02:47:08;96723.28;;;6.19;100.00
70968;BME280;58629;48.808;8.820;2023-02-23T02:50:01;96723.66;;;6.21;100.00
70968;BME280;58629;48.808;8.820;2023-02-23T02:52:31;96726.25;;;6.25;100.00
70968;BME280;58629;48.808;8.820;2023-02-23T02:55:08;96725.84;;;6.26;100.00
70968;BME280;58629;48.808;8.820;2023-02-23T02:57:37;96720.94;;;6.28;100.00
70968;BME280;58629;48.808;8.820;2023-02-23T03:00:05;96726.22;;;6.28;100.00
70968;BME280;58629;48.808;8.820;2023-02-23T03:02:49;96723.97;;;6.27;100.00
70968;BME280;58629;48.808;8.820;2023-02-23T03:05:41;96725.47;;;6.28;100.00
70968;BME280;58629;48.808;8.820;2023-02-23T03:08:38;96730.38;;;6.26;100.00
70968;BME280;58629;48.808;8.820;2023-02-23T03:11:32;96722.13;;;6.20;100.00
70968;BME280;58629;48.808;8.820;2023-02-23T03:17:33;96721.03;;;6.18;100.00
70968;BME280;58629;48.808;8.820;2023-02-23T03:20:44;96724.41;;;6.22;100.00
70968;BME280;58629;48.808;8.820;2023-02-23T03:23:57;96733.75;;;6.23;100.00
70968;BME280;58629;48.808;8.820;2023-02-23T03:26:49;96723.66;;;6.21;100.00
70968;BME280;58629;48.808;8.820;2023-02-23T03:29:46;96725.16;;;6.19;100.00
70968;BME280;58629;48.808;8.820;2023-02-23T03:32:36;96727.03;;;6.18;100.00
70968;BME280;58629;48.808;8.820;2023-02-23T03:35:54;96727.38;;;6.20;100.00
70968;BME280;58629;48.808;8.820;2023-02-23T03:38:45;96727.38;;;6.20;100.00
70968;BME280;58629;48.808;8.820;2023-02-23T03:41:32;96734.19;;;6.18;100.00
70968;BME280;58629;48.808;8.820;2023-02-23T03:44:30;96723.72;;;6.10;100.00
70968;BME280;58629;48.808;8.820;2023-02-23T03:47:17;96735.00;;;6.07;100.00
70968;BME280;58629;48.808;8.820;2023-02-23T03:50:06;96729.78;;;6.04;100.00
70968;BME280;58629;48.808;8.820;2023-02-23T03:52:55;96733.13;;;6.04;100.00
70968;BME280;58629;48.808;8.820;2023-02-23T03:55:43;96727.88;;;6.08;100.00
70968;BME280;58629;48.808;8.820;2023-02-23T03:58:38;96730.13;;;6.09;100.00
70968;BME280;58629;48.808;8.820;2023-02-23T04:01:24;96735.00;;;6.07;100.00
70968;BME280;58629;48.808;8.820;2023-02-23T04:04:09;96732.03;;;6.02;100.00
70968;BME280;58629;48.808;8.820;2023-02-23T04:06:57;96728.31;;;5.99;100.00
70968;BME280;58629;48.808;8.820;2023-02-23T04:09:42;96732.81;;;5.99;100.00
70968;BME280;58629;48.808;8.820;2023-02-23T04:12:39;96730.56;;;5.97;100.00
70968;BME280;58629;48.808;8.820;2023-02-23T04:15:31;96735.81;;;5.97;100.00
70968;BME280;58629;48.808;8.820;2023-02-23T04:17:58;96739.94;;;5.98;100.00
70968;BME280;58629;48.808;8.820;2023-02-23T04:20:25;96736.56;;;5.98;100.00
70968;BME280;58629;48.808;8.820;2023-02-23T04:22:51;96732.81;;;5.99;100.00
70968;BME280;58629;48.808;8.820;2023-02-23T04:25:17;96732.81;;;5.99;100.00
70968;BME280;58629;48.808;8.820;2023-02-23T04:27:43;96734.66;;;5.98;100.00
70968;BME280;58629;48.808;8.820;2023-02-23T04:30:09;96732.81;;;5.99;100.00
70968;BME280;58629;48.808;8.820;2023-02-23T04:32:35;96736.56;;;5.98;100.00
70968;BME280;58629;48.808;8.820;2023-02-23T04:35:01;96734.34;;;5.93;100.00
70968;BME280;58629;48.808;8.820;2023-02-23T04:37:26;96740.00;;;5.88;100.00
70968;BME280;58629;48.808;8.820;2023-02-23T04:39:51;96741.91;;;5.84;100.00
70968;BME280;58629;48.808;8.820;2023-02-23T04:42:17;96742.28;;;5.86;100.00
70968;BME280;58629;48.808;8.820;2023-02-23T04:44:43;96741.09;;;5.90;100.00
70968;BME280;58629;48.808;8.820;2023-02-23T04:47:09;96738.47;;;5.94;100.00
70968;BME280;58629;48.808;8.820;2023-02-23T04:49:34;96742.63;;;5.91;100.00
70968;BME280;58629;48.808;8.820;2023-02-23T04:52:00;96745.59;;;5.93;100.00
70968;BME280;58629;48.808;8.820;2023-02-23T04:54:25;96745.97;;;5.95;100.00
70968;BME280;58629;48.808;8.820;2023-02-23T04:56:50;96739.56;;;5.96;100.00
70968;BME280;58629;48.808;8.820;2023-02-23T04:59:16;96739.19;;;5.94;100.00
70968;BME280;58629;48.808;8.820;2023-02-23T05:01:41;96740.69;;;5.99;100.00
70968;BME280;58629;48.808;8.820;2023-02-23T05:04:06;96742.94;;;5.97;100.00
70968;BME280;58629;48.808;8.820;2023-02-23T05:06:32;96737.34;;;5.95;100.00
70968;BME280;58629;48.808;8.820;2023-02-23T05:08:58;96738.06;;;5.99;100.00
70968;BME280;58629;48.808;8.820;2023-02-23T05:11:23;96747.81;;;5.98;100.00
70968;BME280;58629;48.808;8.820;2023-02-23T05:13:50;96733.94;;;5.98;100.00
70968;BME280;58629;48.808;8.820;2023-02-23T05:16:16;96736.94;;;6.00;100.00
70968;BME280;58629;48.808;8.820;2023-02-23T05:18:42;96731.28;;;6.01;100.00
70968;BME280;58629;48.808;8.820;2023-02-23T05:21:08;96738.38;;;6.04;100.00
70968;BME280;58629;48.808;8.820;2023-02-23T05:23:35;96741.81;;;5.94;100.00
70968;BME280;58629;48.808;8.820;2023-02-23T05:26:01;96740.31;;;5.97;100.00
70968;BME280;58629;48.808;8.820;2023-02-23T05:28:31;96738.84;;;5.96;100.00
70968;BME280;58629;48.808;8.820;2023-02-23T05:30:56;96744.16;;;5.85;100.00
70968;BME280;58629;48.808;8.820;2023-02-23T05:33:21;96734.03;;;5.84;100.00
70968;BME280;58629;48.808;8.820;2023-02-23T05:35:47;96741.88;;;5.87;100.00
70968;BME280;58629;48.808;8.820;2023-02-23T05:38:13;96742.25;;;5.82;100.00
70968;BME280;58629;48.808;8.820;2023-02-23T05:40:38;96744.88;;;5.82;100.00
70968;BME280;58629;48.808;8.820;2023-02-23T05:43:04;96747.50;;;5.82;100.00
70968;BME280;58629;48.808;8.820;2023-02-23T05:45:29;96749.78;;;5.84;100.00
70968;BME280;58629;48.808;8.820;2023-02-23T05:47:54;96750.16;;;5.86;100.00
70968;BME280;58629;48.808;8.820;2023-02-23T05:50:19;96744.88;;;5.89;100.00
70968;BME280;58629;48.808;8.820;2023-02-23T05:52:45;96747.47;;;5.93;100.00
70968;BME280;58629;48.808;8.820;2023-02-23T05:55:10;96741.81;;;5.94;100.00
70968;BME280;58629;48.808;8.820;2023-02-23T05:57:36;96738.09;;;5.95;100.00
70968;BME280;58629;48.808;8.820;2023-02-23T06:00:04;96741.84;;;5.91;100.00
70968;BME280;58629;48.808;8.820;2023-02-23T06:02:29;96745.25;;;5.91;100.00
70968;BME280;58629;48.808;8.820;2023-02-23T06:04:55;96741.84;;;5.91;100.00
70968;BME280;58629;48.808;8.820;2023-02-23T06:07:20;96738.13;;;5.92;100.00
70968;BME280;58629;48.808;8.820;2023-02-23T06:09:45;96736.59;;;5.91;100.00
70968;BME280;58629;48.808;8.820;2023-02-23T06:12:10;96743.00;;;5.90;100.00
70968;BME280;58629;48.808;8.820;2023-02-23T06:14:36;96743.00;;;5.90;100.00
70968;BME280;58629;48.808;8.820;2023-02-23T06:17:01;96750.50;;;5.91;100.00
70968;BME280;58629;48.808;8.820;2023-02-23T06:19:26;96747.13;;;5.91;100.00
70968;BME280;58629;48.808;8.820;2023-02-23T06:21:52;96749.00;;;5.87;100.00
70968;BME280;58629;48.808;8.820;2023-02-23T06:24:18;96759.53;;;5.87;100.00
70968;BME280;58629;48.808;8.820;2023-02-23T06:26:43;96750.53;;;5.88;100.00
70968;BME280;58629;48.808;8.820;2023-02-23T06:29:09;96753.50;;;5.90;100.00
70968;BME280;58629;48.808;8.820;2023-02-23T06:31:36;96749.34;;;5.92;100.00
70968;BME280;58629;48.808;8.820;2023-02-23T06:34:01;96751.97;;;5.96;100.00
70968;BME280;58629;48.808;8.820;2023-02-23T06:36:26;96759.84;;;5.99;100.00
70968;BME280;58629;48.808;8.820;2023-02-23T06:38:58;96765.06;;;6.03;100.00
70968;BME280;58629;48.808;8.820;2023-02-23T06:41:24;96769.56;;;6.06;100.00
70968;BME280;58629;48.808;8.820;2023-02-23T06:43:49;96767.66;;;6.10;100.00
70968;BME280;58629;48.808;8.820;2023-02-23T06:46:15;96766.56;;;6.07;100.00
70968;BME280;58629;48.808;8.820;2023-02-23T06:48:40;96765.03;;;6.06;100.00
70968;BME280;58629;48.808;8.820;2023-02-23T06:51:06;96771.44;;;6.05;100.00
70968;BME280;58629;48.808;8.820;2023-02-23T06:53:31;96778.63;;;5.94;100.00
70968;BME280;58629;48.808;8.820;2023-02-23T06:55:57;96786.53;;;5.80;100.00
70968;BME280;58629;48.808;8.820;2023-02-23T06:58:23;96793.72;;;5.76;100.00
70968;BME280;58629;48.808;8.820;2023-02-23T07:00:48;96789.59;;;5.75;100.00
70968;BME280;58629;48.808;8.820;2023-02-23T07:03:14;96787.34;;;5.74;100.00
70968;BME280;58629;48.808;8.820;2023-02-23T07:05:39;96787.72;;;5.76;100.00
70968;BME280;58629;48.808;8.820;2023-02-23T07:08:05;96793.34;;;5.78;100.00
70968;BME280;58629;48.808;8.820;2023-02-23T07:10:30;96798.56;;;5.81;100.00
70968;BME280;58629;48.808;8.820;2023-02-23T07:12:55;96803.81;;;5.88;100.00
70968;BME280;58629;48.808;8.820;2023-02-23T07:15:21;96811.28;;;5.97;100.00
70968;BME280;58629;48.808;8.820;2023-02-23T07:17:46;96813.16;;;6.00;100.00
70968;BME280;58629;48.808;8.820;2023-02-23T07:20:14;96809.72;;;6.06;100.00
70968;BME280;58629;48.808;8.820;2023-02-23T07:22:40;96808.97;;;6.09;100.00
70968;BME280;58629;48.808;8.820;2023-02-23T07:25:06;96811.22;;;6.11;100.00
70968;BME280;58629;48.808;8.820;2023-02-23T07:27:32;96815.31;;;6.16;100.00
70968;BME280;58629;48.808;8.820;2023-02-23T07:29:58;96808.53;;;6.18;100.00
70968;BME280;58629;48.808;8.820;2023-02-23T07:32:23;96811.16;;;6.22;100.00
70968;BME280;58629;48.808;8.820;2023-02-23T07:34:48;96810.75;;;6.27;100.00
70968;BME280;58629;48.808;8.820;2023-02-23T07:37:14;96807.72;;;6.28;100.00
70968;BME280;58629;48.808;8.820;2023-02-23T07:39:39;96810.34;;;6.32;100.00
70968;BME280;58629;48.808;8.820;2023-02-23T07:42:04;96804.31;;;6.35;100.00
70968;BME280;58629;48.808;8.820;2023-02-23T07:44:30;96821.56;;;6.39;100.00
70968;BME280;58629;48.808;8.820;2023-02-23T07:46:55;96814.03;;;6.41;100.00
70968;BME280;58629;48.808;8.820;2023-02-23T07:49:20;96818.13;;;6.46;100.00
70968;BME280;58629;48.808;8.820;2023-02-23T07:51:45;96813.59;;;6.50;100.00
70968;BME280;58629;48.808;8.820;2023-02-23T07:54:11;96816.59;;;6.55;100.00
70968;BME280;58629;48.808;8.820;2023-02-23T07:56:36;96816.53;;;6.59;100.00
70968;BME280;58629;48.808;8.820;2023-02-23T07:59:02;96821.84;;;6.55;100.00
70968;BME280;58629;48.808;8.820;2023-02-23T08:01:27;96819.19;;;6.59;100.00
70968;BME280;58629;48.808;8.820;2023-02-23T08:03:52;96815.41;;;6.63;100.00
70968;BME280;58629;48.808;8.820;2023-02-23T08:06:18;96818.72;;;6.71;100.00
70968;BME280;58629;48.808;8.820;2023-02-23T08:08:43;96826.19;;;6.76;100.00
70968;BME280;58629;48.808;8.820;2023-02-23T08:11:09;96823.16;;;6.81;100.00
70968;BME280;58629;48.808;8.820;2023-02-23T08:13:36;96818.97;;;6.87;100.00
70968;BME280;58629;48.808;8.820;2023-02-23T08:16:01;96825.66;;;6.95;100.00
70968;BME280;58629;48.808;8.820;2023-02-23T08:18:27;96823.41;;;6.97;100.00
70968;BME280;58629;48.808;8.820;2023-02-23T08:21:02;96825.56;;;7.06;100.00
70968;BME280;58629;48.808;8.820;2023-02-23T08:23:30;96823.97;;;7.15;100.00
70968;BME280;58629;48.808;8.820;2023-02-23T08:25:55;96822.66;;;7.34;100.00
70968;BME280;58629;48.808;8.820;2023-02-23T08:28:21;96824.41;;;7.47;100.00
70968;BME280;58629;48.808;8.820;2023-02-23T08:30:46;96819.28;;;7.67;100.00
70968;BME280;58629;48.808;8.820;2023-02-23T08:33:11;96824.44;;;7.77;100.00
70968;BME280;58629;48.808;8.820;2023-02-23T08:35:37;96821.66;;;7.92;100.00
70968;BME280;58629;48.808;8.820;2023-02-23T08:38:02;96820.72;;;8.05;100.00
70968;BME280;58629;48.808;8.820;2023-02-23T08:40:27;96821.41;;;8.09;100.00
70968;BME280;58629;48.808;8.820;2023-02-23T08:42:52;96821.66;;;8.18;100.00
70968;BME280;58629;48.808;8.820;2023-02-23T08:45:18;96821.22;;;8.53;100.00
70968;BME280;58629;48.808;8.820;2023-02-23T08:47:44;96811.91;;;8.95;100.00
70968;BME280;58629;48.808;8.820;2023-02-23T08:50:10;96817.88;;;9.42;100.00
70968;BME280;58629;48.808;8.820;2023-02-23T08:52:37;96818.13;;;9.87;99.84
70968;BME280;58629;48.808;8.820;2023-02-23T08:55:03;96821.66;;;10.19;97.48
70968;BME280;58629;48.808;8.820;2023-02-23T08:57:32;96820.22;;;10.51;94.79
70968;BME280;58629;48.808;8.820;2023-02-23T08:59:57;96818.06;;;10.78;91.98
70968;BME280;58629;48.808;8.820;2023-02-23T09:02:22;96822.03;;;11.02;90.38
70968;BME280;58629;48.808;8.820;2023-02-23T09:04:48;96818.22;;;11.19;88.95
70968;BME280;58629;48.808;8.820;2023-02-23T09:07:16;96823.47;;;11.35;87.83
70968;BME280;58629;48.808;8.820;2023-02-23T09:09:42;96828.41;;;11.49;87.17
70968;BME280;58629;48.808;8.820;2023-02-23T09:12:07;96820.75;;;11.67;86.31
70968;BME280;58629;48.808;8.820;2023-02-23T09:14:33;96826.84;;;11.80;85.65
70968;BME280;58629;48.808;8.820;2023-02-23T09:17:00;96825.16;;;11.86;84.57
70968;BME280;58629;48.808;8.820;2023-02-23T09:19:25;96825.06;;;11.90;83.98
70968;BME280;58629;48.808;8.820;2023-02-23T09:21:51;96829.84;;;11.95;83.30
70968;BME280;58629;48.808;8.820;2023-02-23T09:24:19;96825.63;;;11.97;82.46
70968;BME280;58629;48.808;8.820;2023-02-23T09:26:45;96822.66;;;12.08;82.54
70968;BME280;58629;48.808;8.820;2023-02-23T09:29:11;96820.13;;;12.17;82.14
70968;BME280;58629;48.808;8.820;2023-02-23T09:31:37;96819.91;;;12.24;80.81
70968;BME280;58629;48.808;8.820;2023-02-23T09:34:03;96817.47;;;12.30;81.22
70968;BME280;58629;48.808;8.820;2023-02-23T09:36:30;96816.44;;;12.40;80.55
70968;BME280;58629;48.808;8.820;2023-02-23T09:38:56;96819.50;;;12.51;80.55
70968;BME280;58629;48.808;8.820;2023-02-23T09:47:12;96812.22;;;12.89;77.58
70968;BME280;58629;48.808;8.820;2023-02-23T09:49:44;96808.19;;;12.97;77.23
70968;BME280;58629;48.808;8.820;2023-02-23T09:52:17;96811.78;;;13.03;76.97
70968;BME280;58629;48.808;8.820;2023-02-23T09:54:44;96817.19;;;13.12;76.27
70968;BME280;58629;48.808;8.820;2023-02-23T09:57:13;96813.56;;;13.19;76.07
70968;BME280;58629;48.808;8.820;2023-02-23T09:59:40;96817.03;;;13.28;75.62
70968;BME280;58629;48.808;8.820;2023-02-23T10:02:25;96818.78;;;13.44;74.73
70968;BME280;58629;48.808;8.820;2023-02-23T10:05:04;96822.13;;;13.57;75.08
70968;BME280;58629;48.808;8.820;2023-02-23T10:07:48;96827.53;;;13.66;74.42
70968;BME280;58629;48.808;8.820;2023-02-23T10:15:39;96823.78;;;13.76;73.41
70968;BME280;58629;48.808;8.820;2023-02-23T10:21:08;96824.25;;;13.83;72.93
70968;BME280;58629;48.808;8.820;2023-02-23T10:23:47;96822.28;;;13.75;73.31
70968;BME280;58629;48.808;8.820;2023-02-23T10:26:23;96818.31;;;13.79;71.93
70968;BME280;58629;48.808;8.820;2023-02-23T10:28:50;96817.16;;;13.80;71.11
70968;BME280;58629;48.808;8.820;2023-02-23T10:31:30;96823.50;;;13.83;69.81
70968;BME280;58629;48.808;8.820;2023-02-23T10:34:03;96819.69;;;13.84;70.24
70968;BME280;58629;48.808;8.820;2023-02-23T10:36:34;96823.69;;;13.88;69.99
70968;BME280;58629;48.808;8.820;2023-02-23T10:39:02;96823.00;;;13.54;69.85
70968;BME280;58629;48.808;8.820;2023-02-23T10:41:29;96820.41;;;13.63;70.09
70968;BME280;58629;48.808;8.820;2023-02-23T10:43:55;96822.28;;;13.75;70.45
70968;BME280;58629;48.808;8.820;2023-02-23T10:46:23;96827.66;;;13.84;70.27
70968;BME280;58629;48.808;8.820;2023-02-23T10:48:54;96828.59;;;13.90;70.13
70968;BME280;58629;48.808;8.820;2023-02-23T10:51:24;96828.94;;;14.01;70.05
70968;BME280;58629;48.808;8.820;2023-02-23T10:53:51;96830.84;;;14.01;69.90
70968;BME280;58629;48.808;8.820;2023-02-23T10:56:18;96830.31;;;14.06;70.38
70968;BME280;58629;48.808;8.820;2023-02-23T10:58:51;96833.16;;;14.11;70.03
70968;BME280;58629;48.808;8.820;2023-02-23T11:04:25;96821.03;;;13.88;70.03
70968;BME280;58629;48.808;8.820;2023-02-23T11:07:15;96826.00;;;13.56;68.90
70968;BME280;58629;48.808;8.820;2023-02-23T11:09:41;96820.53;;;13.59;70.68
70968;BME280;58629;48.808;8.820;2023-02-23T11:12:25;96818.69;;;13.13;70.36
70968;BME280;58629;48.808;8.820;2023-02-23T11:14:55;96817.72;;;13.20;70.72
70968;BME280;58629;48.808;8.820;2023-02-23T11:17:35;96814.22;;;12.97;69.86
70968;BME280;58629;48.808;8.820;2023-02-23T11:20:27;96813.28;;;13.04;72.26
70968;BME280;58629;48.808;8.820;2023-02-23T11:22:49;96808.25;;;13.19;72.29
70968;BME280;58629;48.808;8.820;2023-02-23T11:25:23;96808.19;;;13.31;71.43
70968;BME280;58629;48.808;8.820;2023-02-23T11:27:50;96807.09;;;13.41;71.81
70968;BME280;58629;48.808;8.820;2023-02-23T11:30:20;96802.69;;;13.26;71.99
70968;BME280;58629;48.808;8.820;2023-02-23T11:32:49;96797.47;;;13.35;70.53
70968;BME280;58629;48.808;8.820;2023-02-23T11:37:40;96802.22;;;13.40;68.73
70968;BME280;58629;48.808;8.820;2023-02-23T11:40:20;96796.16;;;12.92;67.61
70968;BME280;58629;48.808;8.820;2023-02-23T11:42:59;96797.25;;;12.82;68.07
70968;BME280;58629;48.808;8.820;2023-02-23T11:45:46;96798.84;;;13.05;70.12
70968;BME280;58629;48.808;8.820;2023-02-23T11:48:20;96795.16;;;12.77;70.32
70968;BME280;58629;48.808;8.820;2023-02-23T11:50:48;96801.78;;;12.48;72.57
70968;BME280;58629;48.808;8.820;2023-02-23T11:53:15;96797.28;;;12.19;73.75
70968;BME280;58629;48.808;8.820;2023-02-23T11:55:48;96795.56;;;11.88;74.33
70968;BME280;58629;48.808;8.820;2023-02-23T11:58:35;96785.69;;;11.88;75.46
70968;BME280;58629;48.808;8.820;2023-02-23T12:01:04;96788.50;;;11.69;76.76
70968;BME280;58629;48.808;8.820;2023-02-23T12:03:37;96789.38;;;11.50;77.11
70968;BME280;58629;48.808;8.820;2023-02-23T12:06:08;96791.59;;;11.39;77.94
70968;BME280;58629;48.808;8.820;2023-02-23T12:08:46;96791.94;;;11.53;78.77
70968;BME280;58629;48.808;8.820;2023-02-23T12:11:20;96784.13;;;11.33;79.43
70968;BME280;58629;48.808;8.820;2023-02-23T12:13:54;96785.56;;;11.22;82.61
70968;BME280;58629;48.808;8.820;2023-02-23T12:16:30;96786.44;;;11.03;84.32
70968;BME280;58629;48.808;8.820;2023-02-23T12:18:58;96787.16;;;11.03;85.63
70968;BME280;58629;48.808;8.820;2023-02-23T12:21:36;96782.06;;;10.96;86.07
70968;BME280;58629;48.808;8.820;2023-02-23T12:27:10;96787.69;;;10.82;88.86
70968;BME280;58629;48.808;8.820;2023-02-23T12:35:32;96774.69;;;11.32;86.43
70968;BME280;58629;48.808;8.820;2023-02-23T12:38:05;96781.47;;;11.62;85.65
70968;BME280;58629;48.808;8.820;2023-02-23T12:40:36;96770.41;;;11.80;82.52
70968;BME280;58629;48.808;8.820;2023-02-23T12:43:14;96779.13;;;12.05;81.33
70968;BME280;58629;48.808;8.820;2023-02-23T12:46:04;96773.69;;;11.96;80.08
70968;BME280;58629;48.808;8.820;2023-02-23T12:51:08;96768.72;;;11.86;79.30
70968;BME280;58629;48.808;8.820;2023-02-23T12:53:43;96770.50;;;11.89;79.87
70968;BME280;58629;48.808;8.820;2023-02-23T12:56:16;96771.34;;;11.86;79.08
70968;BME280;58629;48.808;8.820;2023-02-23T12:59:34;96765.50;;;11.78;79.93
70968;BME280;58629;48.808;8.820;2023-02-23T13:04:28;96758.97;;;12.33;83.34
70968;BME280;58629;48.808;8.820;2023-02-23T13:07:20;96753.53;;;12.49;82.75
70968;BME280;58629;48.808;8.820;2023-02-23T13:09:59;96749.16;;;12.55;83.17
70968;BME280;58629;48.808;8.820;2023-02-23T13:15:22;96755.63;;;12.67;81.99
70968;BME280;58629;48.808;8.820;2023-02-23T13:18:26;96753.28;;;12.69;82.28
70968;BME280;58629;48.808;8.820;2023-02-23T13:21:12;96761.56;;;12.83;81.08
70968;BME280;58629;48.808;8.820;2023-02-23T13:23:50;96759.53;;;12.75;81.05
70968;BME280;58629;48.808;8.820;2023-02-23T13:26:25;96762.31;;;12.71;79.94
70968;BME280;58629;48.808;8.820;2023-02-23T13:31:47;96761.41;;;12.28;82.90
70968;BME280;58629;48.808;8.820;2023-02-23T13:34:41;96763.63;;;12.16;83.98
70968;BME280;58629;48.808;8.820;2023-02-23T13:37:08;96764.78;;;12.03;85.61
70968;BME280;58629;48.808;8.820;2023-02-23T13:42:39;96768.22;;;11.62;86.21
70968;BME280;58629;48.808;8.820;2023-02-23T13:45:23;96768.69;;;11.45;89.11
70968;BME280;58629;48.808;8.820;2023-02-23T13:51:06;96778.38;;;11.22;89.77
70968;BME280;58629;48.808;8.820;2023-02-23T13:53:41;96776.31;;;11.14;91.72
70968;BME280;58629;48.808;8.820;2023-02-23T13:56:18;96780.56;;;10.95;89.44
70968;BME280;58629;48.808;8.820;2023-02-23T13:58:54;96776.69;;;10.68;90.71
70968;BME280;58629;48.808;8.820;2023-02-23T14:01:30;96780.50;;;10.34;93.34
70968;BME280;58629;48.808;8.820;2023-02-23T14:04:00;96780.00;;;10.04;96.71
70968;BME280;58629;48.808;8.820;2023-02-23T14:06:29;96774.75;;;9.84;97.61
70968;BME280;58629;48.808;8.820;2023-02-23T14:09:07;96756.28;;;9.65;100.00
70968;BME280;58629;48.808;8.820;2023-02-23T14:11:41;96763.97;;;9.75;100.00
70968;BME280;58629;48.808;8.820;2023-02-23T14:14:11;96771.31;;;9.68;98.90
70968;BME280;58629;48.808;8.820;2023-02-23T14:16:37;96770.22;;;9.65;99.14
70968;BME280;58629;48.808;8.820;2023-02-23T14:21:48;96766.56;;;9.59;100.00
70968;BME280;58629;48.808;8.820;2023-02-23T14:29:37;96767.31;;;9.40;99.44
70968;BME280;58629;48.808;8.820;2023-02-23T14:37:23;96766.34;;;9.70;100.00
70968;BME280;58629;48.808;8.820;2023-02-23T14:39:50;96765.47;;;9.76;99.11